createdAt,value
2017-06-23T00:01:27.705Z,66.60
2017-06-23T00:03:54.625Z,66.60
2017-06-23T00:06:21.940Z,67.00
2017-06-23T00:08:48.925Z,67.00
2017-06-23T00:11:15.854Z,67.30
2017-06-23T00:13:42.817Z,67.40
2017-06-23T00:16:09.765Z,67.40
2017-06-23T00:18:37.123Z,67.90
2017-06-23T00:21:04.633Z,68.00
2017-06-23T00:23:31.517Z,68.00
2017-06-23T00:25:58.450Z,67.90
2017-06-23T00:28:25.424Z,67.90
2017-06-23T00:30:52.774Z,67.90
2017-06-23T00:33:20.138Z,68.50
2017-06-23T00:35:47.496Z,68.40
2017-06-23T00:38:14.789Z,68.20
2017-06-23T00:40:41.758Z,68.20
2017-06-23T00:43:08.766Z,68.30
2017-06-23T00:45:35.657Z,68.60
2017-06-23T00:48:02.590Z,68.70
2017-06-23T00:50:29.582Z,68.80
2017-06-23T00:52:56.865Z,68.60
2017-06-23T00:55:23.873Z,68.60
2017-06-23T00:57:50.826Z,68.50
2017-06-23T01:00:18.178Z,68.70
2017-06-23T01:02:45.225Z,68.70
2017-06-23T01:05:12.177Z,69.20
2017-06-23T01:07:39.529Z,69.50
2017-06-23T01:10:06.478Z,69.50
2017-06-23T01:12:33.369Z,69.30
2017-06-23T01:15:00.258Z,69.50
2017-06-23T01:17:27.215Z,69.80
2017-06-23T01:19:54.101Z,69.90
2017-06-23T01:22:20.996Z,69.40
2017-06-23T01:24:47.922Z,70.00
2017-06-23T01:27:14.810Z,69.80
2017-06-23T01:29:42.098Z,69.70
2017-06-23T01:32:09.021Z,69.70
2017-06-23T01:34:35.909Z,69.80
2017-06-23T01:37:02.798Z,70.00
2017-06-23T01:39:30.121Z,69.70
2017-06-23T01:41:57.009Z,69.70
2017-06-23T01:44:23.897Z,69.80
2017-06-23T01:46:50.867Z,69.80
2017-06-23T01:49:17.753Z,69.70
2017-06-23T01:51:44.641Z,70.10
2017-06-23T01:54:11.656Z,69.80
2017-06-23T01:56:38.537Z,69.20
2017-06-23T01:59:05.421Z,68.60
2017-06-23T02:01:32.753Z,67.80
2017-06-23T02:03:59.713Z,67.80
2017-06-23T02:06:27.073Z,67.90
2017-06-23T02:08:54.429Z,67.80
2017-06-23T02:11:21.722Z,68.20
2017-06-23T02:13:48.610Z,68.20
2017-06-23T02:16:15.577Z,68.20
2017-06-23T02:18:42.921Z,67.50
2017-06-23T02:21:09.869Z,67.50
2017-06-23T02:23:37.329Z,67.40
2017-06-23T02:26:04.278Z,67.40
2017-06-23T02:28:31.629Z,67.40
2017-06-23T02:30:58.557Z,67.40
2017-06-23T02:33:25.526Z,67.60
2017-06-23T02:35:52.877Z,68.10
2017-06-23T02:38:19.826Z,68.10
2017-06-23T02:40:47.182Z,68.10
2017-06-23T02:43:14.465Z,68.80
2017-06-23T02:45:41.485Z,68.80
2017-06-23T02:48:08.433Z,69.20
2017-06-23T02:50:35.785Z,70.40
2017-06-23T02:53:02.738Z,70.40
2017-06-23T02:55:30.090Z,70.40
2017-06-23T02:57:57.449Z,70.70
2017-06-23T03:00:24.781Z,71.30
2017-06-23T03:02:51.669Z,71.30
2017-06-23T03:05:18.589Z,71.30
2017-06-23T03:07:45.537Z,71.20
2017-06-23T03:10:12.482Z,70.70
2017-06-23T03:12:39.373Z,70.50
2017-06-23T03:15:06.314Z,70.70
2017-06-23T03:17:33.201Z,70.90
2017-06-23T03:20:00.180Z,71.10
2017-06-23T03:22:27.493Z,70.80
2017-06-23T03:24:54.493Z,70.80
2017-06-23T03:27:21.829Z,70.90
2017-06-23T03:29:49.153Z,71.10
2017-06-23T03:32:16.129Z,71.10
2017-06-23T03:34:43.490Z,71.00
2017-06-23T03:37:10.829Z,71.10
2017-06-23T03:39:37.714Z,71.10
2017-06-23T03:42:04.601Z,71.30
2017-06-23T03:44:31.576Z,71.10
2017-06-23T03:46:58.525Z,70.90
2017-06-23T03:49:25.881Z,70.20
2017-06-23T03:51:53.234Z,70.30
2017-06-23T03:54:20.182Z,70.30
2017-06-23T03:56:47.138Z,69.90
2017-06-23T03:59:14.497Z,69.50
2017-06-23T04:01:41.841Z,69.60
2017-06-23T04:04:09.197Z,69.60
2017-06-23T04:06:36.143Z,69.60
2017-06-23T04:09:03.038Z,70.20
2017-06-23T04:11:29.921Z,70.50
2017-06-23T04:13:56.981Z,70.10
2017-06-23T04:16:23.929Z,69.50
2017-06-23T04:18:50.873Z,69.80
2017-06-23T04:21:17.825Z,70.30
2017-06-23T04:23:45.111Z,70.90
2017-06-23T04:26:11.997Z,70.90
2017-06-23T04:28:38.969Z,70.70
2017-06-23T04:31:06.329Z,70.80
2017-06-23T04:33:33.722Z,70.90
2017-06-23T04:36:00.726Z,70.90
2017-06-23T04:38:27.697Z,70.80
2017-06-23T04:40:54.980Z,70.60
2017-06-23T04:43:21.905Z,70.60
2017-06-23T04:45:48.830Z,70.90
2017-06-23T04:48:16.110Z,71.00
2017-06-23T04:50:43.121Z,71.00
2017-06-23T04:53:10.017Z,71.40
2017-06-23T04:55:36.910Z,71.50
2017-06-23T04:58:03.863Z,72.00
2017-06-23T05:00:30.750Z,71.80
2017-06-23T05:02:57.652Z,72.30
2017-06-23T05:05:24.978Z,72.90
2017-06-23T05:07:51.954Z,72.90
2017-06-23T05:10:18.910Z,73.10
2017-06-23T05:12:46.050Z,72.90
2017-06-23T05:15:12.941Z,72.70
2017-06-23T05:17:39.835Z,73.20
2017-06-23T05:20:06.794Z,72.90
2017-06-23T05:22:34.082Z,72.60
2017-06-23T05:25:00.979Z,72.60
2017-06-23T05:27:27.905Z,72.60
2017-06-23T05:29:54.881Z,71.90
2017-06-23T05:32:21.837Z,71.60
2017-06-23T05:34:49.294Z,71.40
2017-06-23T05:37:16.654Z,71.50
2017-06-23T05:39:44.005Z,71.40
2017-06-23T05:42:11.396Z,71.40
2017-06-23T05:44:38.298Z,71.40
2017-06-23T05:47:05.250Z,70.80
2017-06-23T05:49:32.601Z,69.80
2017-06-23T05:51:59.545Z,69.80
2017-06-23T05:54:26.457Z,69.80
2017-06-23T05:56:53.689Z,70.00
2017-06-23T05:59:20.573Z,69.80
2017-06-23T06:01:47.567Z,69.40
2017-06-23T06:04:14.589Z,69.70
2017-06-23T06:06:41.942Z,70.10
2017-06-23T06:09:08.915Z,70.10
2017-06-23T06:11:36.246Z,70.30
2017-06-23T06:14:03.194Z,70.30
2017-06-23T06:16:30.550Z,70.80
2017-06-23T06:18:57.478Z,70.80
2017-06-23T06:21:24.384Z,70.70
2017-06-23T06:23:51.274Z,70.80
2017-06-23T06:26:18.202Z,70.80
2017-06-23T06:28:45.098Z,70.70
2017-06-23T06:31:12.394Z,70.60
2017-06-23T06:33:39.377Z,70.60
2017-06-23T06:36:06.321Z,70.50
2017-06-23T06:38:33.222Z,70.20
2017-06-23T06:41:00.137Z,70.00
2017-06-23T06:43:27.173Z,69.00
2017-06-23T06:45:54.459Z,67.40
2017-06-23T06:48:21.395Z,67.40
2017-06-23T06:50:48.310Z,68.40
2017-06-23T06:53:15.262Z,68.90
2017-06-23T06:55:42.585Z,67.80
2017-06-23T06:58:09.473Z,67.80
2017-06-23T07:00:36.361Z,68.00
2017-06-23T07:03:03.289Z,67.10
2017-06-23T07:05:30.193Z,67.30
2017-06-23T07:07:57.083Z,67.90
2017-06-23T07:10:24.023Z,68.70
2017-06-23T07:12:50.973Z,68.30
2017-06-23T07:15:18.086Z,68.80
2017-06-23T07:17:45.421Z,69.60
2017-06-23T07:20:12.314Z,69.60
2017-06-23T07:22:39.229Z,69.60
2017-06-23T07:25:06.174Z,69.30
2017-06-23T07:27:33.482Z,68.40
2017-06-23T07:30:00.369Z,68.40
2017-06-23T07:32:27.341Z,68.20
2017-06-23T07:34:54.628Z,68.50
2017-06-23T07:37:21.517Z,68.50
2017-06-23T07:39:48.471Z,68.10
2017-06-23T07:42:15.397Z,67.80
2017-06-23T07:44:42.365Z,66.20
2017-06-23T07:47:09.698Z,66.50
2017-06-23T07:49:36.665Z,66.50
2017-06-23T07:52:04.021Z,67.90
2017-06-23T07:54:30.954Z,67.90
2017-06-23T07:56:57.911Z,67.60
2017-06-23T07:59:24.858Z,66.00
2017-06-23T08:01:51.786Z,65.10
2017-06-23T08:04:18.747Z,63.90
2017-06-23T08:06:45.741Z,64.10
2017-06-23T08:09:12.697Z,65.00
2017-06-23T08:11:39.697Z,64.30
2017-06-23T08:14:06.648Z,63.80
2017-06-23T08:16:34.049Z,62.90
2017-06-23T08:19:00.961Z,62.90
2017-06-23T08:21:27.886Z,62.90
2017-06-23T08:23:54.830Z,62.10
2017-06-23T08:26:21.779Z,61.70
2017-06-23T08:28:48.837Z,62.10
2017-06-23T08:31:16.182Z,62.70
2017-06-23T08:33:43.135Z,62.80
2017-06-23T08:36:10.080Z,62.50
2017-06-23T08:38:37.025Z,62.60
2017-06-23T08:41:04.015Z,63.00
2017-06-23T08:43:30.899Z,62.40
2017-06-23T08:45:57.865Z,62.00
2017-06-23T08:48:24.753Z,61.40
2017-06-23T08:50:51.658Z,62.70
2017-06-23T08:53:18.993Z,62.30
2017-06-23T08:55:45.886Z,62.30
2017-06-23T08:58:12.773Z,61.20
2017-06-23T09:00:39.745Z,61.90
2017-06-23T09:03:06.637Z,62.60
2017-06-23T09:05:33.580Z,63.10
2017-06-23T09:08:00.595Z,62.20
2017-06-23T09:10:27.878Z,61.20
2017-06-23T09:12:54.793Z,61.20
2017-06-23T09:15:22.121Z,61.40
2017-06-23T09:17:49.085Z,61.40
2017-06-23T09:20:15.993Z,61.00
2017-06-23T09:22:42.950Z,61.10
2017-06-23T09:25:09.922Z,61.10
2017-06-23T09:27:36.870Z,60.30
2017-06-23T09:30:05.049Z,61.30
2017-06-23T09:32:32.402Z,60.90
2017-06-23T09:34:59.374Z,60.90
2017-06-23T09:37:26.440Z,61.00
2017-06-23T09:39:53.318Z,60.70
2017-06-23T09:42:20.299Z,61.20
2017-06-23T09:44:47.653Z,60.20
2017-06-23T09:47:15.005Z,60.30
2017-06-23T09:49:42.353Z,59.70
2017-06-23T09:52:09.287Z,59.70
2017-06-23T09:54:36.249Z,60.00
2017-06-23T09:57:03.165Z,59.70
2017-06-23T09:59:30.121Z,60.10
2017-06-23T10:01:57.016Z,60.40
2017-06-23T10:04:23.917Z,59.50
2017-06-23T10:06:50.882Z,59.10
2017-06-23T10:09:17.773Z,59.40
2017-06-23T10:11:44.657Z,60.00
2017-06-23T10:14:11.613Z,60.30
2017-06-23T10:16:38.561Z,60.10
2017-06-23T10:19:05.441Z,59.80
2017-06-23T10:21:32.329Z,59.50
2017-06-23T10:23:59.262Z,59.20
2017-06-23T10:26:26.143Z,57.80
2017-06-23T10:28:53.446Z,57.40
2017-06-23T10:31:20.447Z,57.40
2017-06-23T10:33:47.440Z,57.80
2017-06-23T10:36:14.321Z,57.60
2017-06-23T10:38:41.277Z,57.70
2017-06-23T10:41:08.178Z,58.10
2017-06-23T10:43:35.077Z,57.40
2017-06-23T10:46:02.071Z,57.30
2017-06-23T10:48:29.017Z,57.40
2017-06-23T10:50:55.897Z,58.00
2017-06-23T10:53:22.860Z,58.60
2017-06-23T10:55:49.740Z,59.20
2017-06-23T10:58:16.653Z,59.80
2017-06-23T11:00:43.585Z,59.00
2017-06-23T11:03:10.541Z,58.60
2017-06-23T11:05:37.493Z,58.40
2017-06-23T11:08:04.483Z,57.40
2017-06-23T11:10:31.389Z,58.30
2017-06-23T11:12:58.674Z,57.90
2017-06-23T11:15:26.561Z,58.00
2017-06-23T11:17:53.695Z,58.60
2017-06-23T11:20:20.581Z,58.40
2017-06-23T11:22:47.553Z,56.30
2017-06-23T11:25:14.841Z,56.20
2017-06-23T11:27:41.823Z,56.20
2017-06-23T11:30:08.796Z,57.30
2017-06-23T11:32:35.745Z,57.00
2017-06-23T11:35:02.633Z,57.90
2017-06-23T11:37:29.650Z,57.60
2017-06-23T11:39:57.004Z,56.30
2017-06-23T11:42:24.349Z,56.50
2017-06-23T11:44:51.345Z,56.50
2017-06-23T11:47:18.233Z,56.30
2017-06-23T11:49:45.189Z,56.10
2017-06-23T11:52:12.138Z,56.80
2017-06-23T11:54:39.080Z,57.60
2017-06-23T11:57:06.033Z,57.30
2017-06-23T11:59:32.957Z,56.40
2017-06-23T12:01:59.870Z,55.30
2017-06-23T12:04:26.757Z,55.30
2017-06-23T12:06:53.709Z,55.70
2017-06-23T12:09:20.589Z,55.30
2017-06-23T12:11:47.479Z,55.30
2017-06-23T12:14:14.409Z,54.90
2017-06-23T12:16:41.395Z,54.60
2017-06-23T12:19:08.343Z,54.50
2017-06-23T12:21:35.293Z,54.70
2017-06-23T12:24:02.579Z,55.30
2017-06-23T12:26:29.497Z,55.30
2017-06-23T12:28:56.822Z,54.90
2017-06-23T12:31:23.735Z,54.80
2017-06-23T12:33:50.645Z,54.50
2017-06-23T12:36:17.989Z,55.20
2017-06-23T12:38:44.941Z,55.20
2017-06-23T12:41:11.882Z,54.20
2017-06-23T12:43:39.265Z,54.10
2017-06-23T12:46:06.175Z,54.10
2017-06-23T12:48:33.076Z,54.70
2017-06-23T12:51:00.069Z,54.40
2017-06-23T12:53:27.421Z,54.50
2017-06-23T12:55:54.333Z,54.50
2017-06-23T12:58:21.264Z,53.50
2017-06-23T13:00:48.257Z,53.40
2017-06-23T13:03:15.145Z,53.80
2017-06-23T13:05:42.106Z,53.80
2017-06-23T13:08:08.993Z,53.20
2017-06-23T13:10:35.941Z,53.20
2017-06-23T13:13:03.303Z,54.70
2017-06-23T13:15:30.601Z,53.50
2017-06-23T13:17:57.482Z,53.50
2017-06-23T13:20:24.445Z,53.80
2017-06-23T13:22:51.741Z,53.60
2017-06-23T13:25:18.621Z,53.60
2017-06-23T13:27:45.597Z,52.50
2017-06-23T13:30:12.945Z,53.00
2017-06-23T13:32:39.833Z,53.00
2017-06-23T13:35:06.745Z,53.20
2017-06-23T13:37:34.089Z,53.90
2017-06-23T13:40:00.974Z,53.90
2017-06-23T13:42:27.985Z,53.00
2017-06-23T13:44:54.929Z,52.90
2017-06-23T13:47:21.921Z,52.60
2017-06-23T13:49:48.854Z,51.70
2017-06-23T13:52:15.730Z,51.30
2017-06-23T13:54:42.738Z,51.70
2017-06-23T13:57:10.070Z,53.10
2017-06-23T13:59:37.077Z,53.10
2017-06-23T14:02:04.070Z,53.60
2017-06-23T14:04:30.990Z,53.40
2017-06-23T14:06:57.870Z,53.10
2017-06-23T14:09:25.216Z,53.80
2017-06-23T14:11:52.553Z,54.00
2017-06-23T14:14:19.458Z,54.00
2017-06-23T14:16:46.352Z,53.90
2017-06-23T14:19:13.302Z,53.10
2017-06-23T14:21:40.253Z,53.20
2017-06-23T14:24:07.217Z,53.10
2017-06-23T14:26:34.533Z,53.70
2017-06-23T14:29:01.434Z,53.70
2017-06-23T14:31:28.353Z,53.50
2017-06-23T14:33:55.665Z,53.10
2017-06-23T14:36:22.648Z,53.10
2017-06-23T14:38:49.608Z,53.30
2017-06-23T14:41:16.954Z,52.60
2017-06-23T14:43:43.949Z,52.60
2017-06-23T14:46:10.856Z,52.10
2017-06-23T14:48:38.212Z,52.80
2017-06-23T14:51:05.566Z,52.80
2017-06-23T14:53:32.851Z,51.80
2017-06-23T14:55:59.818Z,51.80
2017-06-23T14:58:26.813Z,52.10
2017-06-23T15:00:54.166Z,51.60
2017-06-23T15:03:21.150Z,51.60
2017-06-23T15:05:48.033Z,52.30
2017-06-23T15:08:15.002Z,51.70
2017-06-23T15:10:41.925Z,51.80
2017-06-23T15:13:08.810Z,52.40
2017-06-23T15:15:36.093Z,52.10
2017-06-23T15:18:03.090Z,52.00
2017-06-23T15:20:30.003Z,52.60
2017-06-23T15:22:56.938Z,51.30
2017-06-23T15:25:23.898Z,50.20
2017-06-23T15:27:50.822Z,50.00
2017-06-23T15:30:17.702Z,50.00
2017-06-23T15:32:44.669Z,50.50
2017-06-23T15:35:11.618Z,51.00
2017-06-23T15:37:38.562Z,50.90
2017-06-23T15:40:05.502Z,51.80
2017-06-23T15:42:32.452Z,50.40
2017-06-23T15:44:59.347Z,49.90
2017-06-23T15:47:26.319Z,49.40
2017-06-23T15:49:53.290Z,49.40
2017-06-23T15:52:20.245Z,47.70
2017-06-23T15:54:47.165Z,48.10
2017-06-23T15:57:14.133Z,48.00
2017-06-23T15:59:41.126Z,49.10
2017-06-23T16:02:08.073Z,49.30
2017-06-23T16:04:34.957Z,50.20
2017-06-23T16:07:01.922Z,50.50
2017-06-23T16:09:28.866Z,50.40
2017-06-23T16:11:55.809Z,49.40
2017-06-23T16:14:22.758Z,50.10
2017-06-23T16:16:49.809Z,50.40
2017-06-23T16:19:16.781Z,50.30
2017-06-23T16:21:43.666Z,50.20
2017-06-23T16:24:10.657Z,50.50
2017-06-23T16:26:37.589Z,50.10
2017-06-23T16:29:04.479Z,50.70
2017-06-23T16:31:31.359Z,50.90
2017-06-23T16:33:58.374Z,50.90
2017-06-23T16:36:25.281Z,49.90
2017-06-23T16:38:52.170Z,49.20
2017-06-23T16:41:19.169Z,48.60
2017-06-23T16:43:46.115Z,48.60
2017-06-23T16:46:13.024Z,47.90
2017-06-23T16:48:39.937Z,46.90
2017-06-23T16:51:06.821Z,45.60
2017-06-23T16:53:33.705Z,45.00
2017-06-23T16:56:01.050Z,45.10
2017-06-23T16:58:27.955Z,45.10
2017-06-23T17:00:54.837Z,45.00
2017-06-23T17:03:21.796Z,45.30
2017-06-23T17:05:49.083Z,45.30
2017-06-23T17:08:16.031Z,45.30
2017-06-23T17:10:42.953Z,46.30
2017-06-23T17:13:10.244Z,45.30
2017-06-23T17:15:37.128Z,45.40
2017-06-23T17:18:04.065Z,44.70
2017-06-23T17:20:31.030Z,44.40
2017-06-23T17:22:57.989Z,43.60
2017-06-23T17:25:24.958Z,43.10
2017-06-23T17:27:51.877Z,42.70
2017-06-23T17:30:19.185Z,42.50
2017-06-23T17:32:46.118Z,42.50
2017-06-23T17:35:13.059Z,42.80
2017-06-23T17:37:39.984Z,43.60
2017-06-23T17:40:07.016Z,43.40
2017-06-23T17:42:34.353Z,43.00
2017-06-23T17:45:01.297Z,43.00
2017-06-23T17:47:28.225Z,44.30
2017-06-23T17:49:55.113Z,45.40
2017-06-23T17:52:22.026Z,46.40
2017-06-23T17:54:48.961Z,46.60
2017-06-23T17:57:15.937Z,46.80
2017-06-23T17:59:43.219Z,49.50
2017-06-23T18:02:10.234Z,49.50
2017-06-23T18:04:37.182Z,49.90
2017-06-23T18:07:04.546Z,50.60
2017-06-23T18:09:31.933Z,51.00
2017-06-23T18:11:58.809Z,51.00
2017-06-23T18:14:25.705Z,51.70
2017-06-23T18:16:52.713Z,51.60
2017-06-23T18:19:19.674Z,51.70
2017-06-23T18:21:46.566Z,51.60
2017-06-23T18:24:13.573Z,51.50
2017-06-23T18:26:40.853Z,51.50
2017-06-23T18:29:07.745Z,51.50
2017-06-23T18:31:34.676Z,51.70
2017-06-23T18:34:01.663Z,52.40
2017-06-23T18:36:28.546Z,52.70
2017-06-23T18:38:55.484Z,52.70
2017-06-23T18:41:22.371Z,53.00
2017-06-23T18:43:49.349Z,53.20
2017-06-23T18:46:16.805Z,53.90
2017-06-23T18:48:43.697Z,53.90
2017-06-23T18:51:10.581Z,54.40
2017-06-23T18:53:37.540Z,54.70
2017-06-23T18:56:04.421Z,54.90
2017-06-23T18:58:31.329Z,54.90
2017-06-23T19:00:58.253Z,55.00
2017-06-23T19:03:25.229Z,55.00
2017-06-23T19:05:52.577Z,55.00
2017-06-23T19:08:19.537Z,55.00
2017-06-23T19:10:46.881Z,55.70
2017-06-23T19:13:13.825Z,55.70
2017-06-23T19:15:40.754Z,55.90
2017-06-23T19:18:07.718Z,56.20
2017-06-23T19:20:34.680Z,56.30
2017-06-23T19:23:02.265Z,57.00
2017-06-23T19:25:29.173Z,57.00
2017-06-23T19:27:56.127Z,57.10
2017-06-23T19:30:23.480Z,57.10
2017-06-23T19:32:50.375Z,57.10
2017-06-23T19:35:17.259Z,57.30
2017-06-23T19:37:44.213Z,57.30
2017-06-23T19:40:11.094Z,57.50
2017-06-23T19:42:38.106Z,57.30
2017-06-23T19:45:05.063Z,57.60
2017-06-23T19:47:32.342Z,57.80
2017-06-23T19:49:59.229Z,57.80
2017-06-23T19:52:26.202Z,57.60
2017-06-23T19:54:53.146Z,57.50
2017-06-23T19:57:20.093Z,57.70
2017-06-23T19:59:47.099Z,57.60
2017-06-23T20:02:13.981Z,57.90
2017-06-23T20:04:40.976Z,58.00
2017-06-23T20:07:07.920Z,58.10
2017-06-23T20:09:34.797Z,58.30
2017-06-23T20:12:01.769Z,58.30
2017-06-23T20:14:28.698Z,58.50
2017-06-23T20:16:55.581Z,58.70
2017-06-23T20:19:22.871Z,59.00
2017-06-23T20:21:49.866Z,59.00
2017-06-23T20:24:17.145Z,59.10
2017-06-23T20:26:44.071Z,59.10
2017-06-23T20:29:11.404Z,59.20
2017-06-23T20:31:38.286Z,59.20
2017-06-23T20:34:05.261Z,59.10
2017-06-23T20:36:32.262Z,59.10
2017-06-23T20:38:59.541Z,59.20
2017-06-23T20:41:26.433Z,59.20
2017-06-23T20:43:53.406Z,59.10
2017-06-23T20:46:20.365Z,59.10
2017-06-23T20:48:47.714Z,59.10
2017-06-23T20:51:15.065Z,58.90
2017-06-23T20:53:41.954Z,58.90
2017-06-23T20:56:08.909Z,58.90
2017-06-23T20:58:35.915Z,58.90
2017-06-23T21:01:03.202Z,58.20
2017-06-23T21:03:30.086Z,58.20
2017-06-23T21:05:57.099Z,58.10
2017-06-23T21:08:23.992Z,58.10
2017-06-23T21:10:50.953Z,58.20
2017-06-23T21:13:18.344Z,58.90
2017-06-23T21:15:45.262Z,58.80
2017-06-23T21:18:12.634Z,60.00
2017-06-23T21:20:39.658Z,60.00
2017-06-23T21:23:06.946Z,60.80
2017-06-23T21:25:33.833Z,60.80
2017-06-23T21:28:00.797Z,61.40
2017-06-23T21:30:27.745Z,61.90
2017-06-23T21:32:54.705Z,62.00
2017-06-23T21:35:22.045Z,62.10
2017-06-23T21:37:49.025Z,62.10
2017-06-23T21:40:27.870Z,62.10
2017-06-23T21:42:54.789Z,62.30
2017-06-23T21:45:22.063Z,62.60
2017-06-23T21:47:49.061Z,62.60
2017-06-23T21:50:16.052Z,62.70
2017-06-23T21:52:42.981Z,62.60
2017-06-23T21:55:09.959Z,62.70
2017-06-23T21:57:36.858Z,62.70
2017-06-23T22:00:04.133Z,62.50
2017-06-23T22:02:31.058Z,62.40
2017-06-23T22:04:58.341Z,62.30
2017-06-23T22:07:25.238Z,62.30
2017-06-23T22:09:52.161Z,62.30
2017-06-23T22:12:19.145Z,62.40
2017-06-23T22:14:46.066Z,62.50
2017-06-23T22:17:13.033Z,62.70
2017-06-23T22:19:39.982Z,63.10
2017-06-23T22:22:06.936Z,63.20
2017-06-23T22:24:33.880Z,63.30
2017-06-23T22:27:00.822Z,63.30
2017-06-23T22:29:27.765Z,63.50
2017-06-23T22:31:54.690Z,64.00
2017-06-23T22:34:21.668Z,64.40
2017-06-23T22:36:48.550Z,64.60
2017-06-23T22:39:15.466Z,64.60
2017-06-23T22:41:42.809Z,65.00
2017-06-23T22:44:09.697Z,65.00
2017-06-23T22:46:36.614Z,65.40
2017-06-23T22:49:03.959Z,66.10
2017-06-23T22:51:30.901Z,66.10
2017-06-23T22:53:57.849Z,66.10
2017-06-23T22:56:24.737Z,66.00
2017-06-23T22:58:51.641Z,66.00
2017-06-23T23:01:18.586Z,66.20
2017-06-23T23:03:45.534Z,66.60
2017-06-23T23:06:12.481Z,66.80
2017-06-23T23:08:39.548Z,66.90
2017-06-23T23:11:06.881Z,67.00
2017-06-23T23:13:33.826Z,67.00
2017-06-23T23:16:00.745Z,66.80
2017-06-23T23:18:27.717Z,66.60
2017-06-23T23:20:54.602Z,66.50
2017-06-23T23:23:21.522Z,66.20
2017-06-23T23:25:48.796Z,66.10
2017-06-23T23:28:15.710Z,66.10
2017-06-23T23:30:42.658Z,66.10
2017-06-23T23:33:09.548Z,66.00
2017-06-23T23:35:36.433Z,65.90
2017-06-23T23:38:03.365Z,65.90
2017-06-23T23:40:30.338Z,65.80
2017-06-23T23:42:57.221Z,66.00
2017-06-23T23:45:24.170Z,66.30
2017-06-23T23:47:51.053Z,66.80
2017-06-23T23:50:18.030Z,66.90
2017-06-23T23:52:45.359Z,66.90
2017-06-23T23:55:12.251Z,66.90
2017-06-23T23:57:39.582Z,67.30
